Lovettsville, Virginia
Current Conditions -  °F | °C
As of 10:55 PM on Thursday 27 Nov 2014 (Local Time) from KJYO Reporting Station
Scattered Clouds Scattered Clouds  
Wind Chill: 28°   Ceiling: Unl
Heat Index: 36°   Visibility: 10mi
Dew Point: 32°   Wind: 12mph
Humidity: 87%   Direction: 310°NW
Pressure: 30.18"   Gusts: 18mph
Location:  39.27°N, 77.64°W
Report Text: KJYO 280355Z AUTO 31010G16KT 10SM SCT090 02/00 A3018 RMK AO2
Loading
Personal Weather Stations






























Interactive Weather Map New forecast layout! Learn more

10-Day Weather Forecast

Advertisements
Track Severe Weather on mobile